Terminal Aerodrome Forecast
Issued by NWS Blacksburg, VA

Home | Current Version | Previous Version | Text Only | Print | Product List | Glossary On
Versions: 1 2 3 4 5 6 7 8 9 10 11 12 13 14 15 16 17 18 19 20 21 22 23 24 25 26 27 28 29 30 31 32 33
000
FTUS41 KRNK 231833 AAA
TAFDAN
TAF AMD
KDAN 231833Z 2319/2418 05006KT P6SM -SHRA SCT020 BKN070
     FM240300 04004KT 6SM BR OVC019
     FM240900 04004KT 5SM BR OVC004
     FM241300 05007KT 4SM BR OVC007
     FM241500 05008KT P6SM OVC015
     FM241700 06005KT P6SM SCT018 BKN022=

USA.gov is the U.S. government's official web portal to all federal, state and local government web resources and services.